Flight Briefing for CPX17

Departure Arrival
Taiwan Taoyuan International Airport (RCTP)
Click to view FAA NOTAMS
Ted Stevens Anchorage International Airport (PANC)
Click to view FAA NOTAMS
Departure Time Arrival Time
N/A N/A
Aircraft Distance
MD-11SF 4065nm
Departure METAR Arrival METAR
RCTP 180656Z 03006KT 8000 -RA SCT003 BKN005 BKN012 20/19 Q1014 NOSIG RMK A2995 PANC 180653Z 21011G22KT 10SM FEW012 BKN022 OVC055 03/M01 A2985 RMK AO2 SLP111 VIRGA NW-N T00281011
Suggested Route
MOLKA M750 MIDAI M750 BUNGU Y81 SYOYU Y809 KAGIS A590 PABBA A590 PASRO A590 HAMND NEELL6


View recent IFR Routes data
Notes



Charts and Procedures

Charts for RCTP
No chart available
Charts for PANC
No chart available

Ventusky Weather